Time;durP1;ratioP1;P1;durP2;ratioP2;P2;SDS_P1;SDS_P2;PMS_P1;PMS_P2;Temp;Humidity;BMP_temperature;BMP_pressure;BME280_temperature;BME280_humidity;BME280_pressure;Samples;Min_cycle;Max_cycle;Signal;HPM_P1;HPM_P2
2023/06/05 00:01:06;;;;;;;18.13;11.47;;;;;;;-143.21;98.61;72512.44;5070716;28;20201;-77
2023/06/05 00:03:33;;;;;;;21.60;13.27;;;;;;;-143.21;99.11;72500.53;5070651;28;21634;-76
2023/06/05 00:06:00;;;;;;;17.87;14.00;;;;;;;-143.21;98.89;72500.53;5068838;28;20997;-77
2023/06/05 00:08:27;;;;;;;15.93;10.00;;;;;;;-143.21;98.09;72492.59;5070780;28;20197;-76
2023/06/05 00:10:53;;;;;;;14.03;9.83;;;;;;;-143.21;97.13;72494.59;5070725;28;20190;-77
2023/06/05 00:13:22;;;;;;;13.40;9.50;;;;;;;-143.21;96.81;72510.44;5071078;28;20200;-77
2023/06/05 00:15:49;;;;;;;15.17;11.53;;;;;;;-143.21;97.43;72508.47;5070881;28;20194;-76
2023/06/05 00:18:17;;;;;;;18.10;12.30;;;;;;;-143.21;97.82;72506.50;5070655;28;20259;-77
2023/06/05 00:20:44;;;;;;;20.73;12.60;;;;;;;-143.21;97.83;72514.41;5068521;28;20198;-76
2023/06/05 00:23:19;;;;;;;16.23;12.97;;;;;;;-143.21;98.43;72512.44;5070675;28;20527;-77
2023/06/05 00:25:46;;;;;;;20.43;13.57;;;;;;;-143.21;98.38;72510.44;5068443;28;20201;-77
2023/06/05 00:28:13;;;;;;;23.17;13.23;;;;;;;-143.21;98.45;72508.47;5071008;28;20197;-76
2023/06/05 00:30:41;;;;;;;16.30;10.90;;;;;;;-143.21;97.58;72500.53;5070640;28;20660;-76
2023/06/05 00:33:08;;;;;;;18.17;11.83;;;;;;;-143.21;97.37;72490.63;5070976;28;20202;-76
2023/06/05 00:35:35;;;;;;;17.63;10.20;;;;;;;-143.21;97.12;72490.63;5070223;28;20278;-76
2023/06/05 00:38:01;;;;;;;13.83;9.70;;;;;;;-143.21;96.67;72488.63;5069878;28;20201;-76
2023/06/05 00:40:28;;;;;;;17.37;9.93;;;;;;;-143.21;96.43;72496.56;5070358;28;20213;-76
2023/06/05 00:42:55;;;;;;;16.43;9.73;;;;;;;-143.21;96.40;72506.50;5069956;28;20205;-76
2023/06/05 00:45:22;;;;;;;16.03;10.43;;;;;;;-143.21;96.62;72518.38;5068727;28;20194;-76
2023/06/05 00:47:50;;;;;;;11.87;9.90;;;;;;;-143.21;97.09;72510.44;5070579;28;20196;-77
2023/06/05 00:50:21;;;;;;;18.77;11.07;;;;;;;-143.21;97.77;72506.50;5070027;28;20193;-76
2023/06/05 00:52:49;;;;;;;15.73;12.00;;;;;;;-143.21;97.87;72498.56;5070402;28;20225;-77
2023/06/05 00:55:16;;;;;;;15.90;10.47;;;;;;;-143.21;97.14;72502.53;5068827;28;20201;-76
2023/06/05 00:57:44;;;;;;;18.87;11.47;;;;;;;-143.21;97.21;72502.53;5068180;28;20201;-77
2023/06/05 01:00:12;;;;;;;16.77;11.13;;;;;;;-143.21;97.17;72502.53;5070058;28;20217;-77
2023/06/05 01:02:40;;;;;;;18.47;11.23;;;;;;;-143.21;97.24;72506.50;5070455;28;20229;-77
2023/06/05 01:05:09;;;;;;;19.33;10.97;;;;;;;-143.21;97.58;72498.56;5070242;28;20266;-77
2023/06/05 01:07:38;;;;;;;17.07;11.03;;;;;;;-143.21;97.75;72494.59;5070352;28;20767;-76
2023/06/05 01:10:08;;;;;;;20.90;11.30;;;;;;;-143.21;97.61;72480.72;5069419;28;20532;-77
2023/06/05 01:12:39;;;;;;;15.33;11.87;;;;;;;-143.21;97.42;72486.66;5069436;28;20205;-77
2023/06/05 01:15:08;;;;;;;15.87;11.43;;;;;;;-143.21;97.53;72478.72;5070107;28;20218;-76
2023/06/05 01:17:36;;;;;;;21.60;11.23;;;;;;;-143.21;97.11;72472.78;5070357;28;20263;-77
2023/06/05 01:20:06;;;;;;;18.47;11.13;;;;;;;-143.21;97.28;72470.78;5068501;28;20209;-77
2023/06/05 01:22:35;;;;;;;14.13;11.23;;;;;;;-143.21;97.37;72468.81;5069433;28;20228;-77
2023/06/05 01:25:03;;;;;;;20.77;11.33;;;;;;;-143.21;97.22;72472.78;5067351;28;20260;-82
2023/06/05 01:27:38;;;;;;;15.17;10.93;;;;;;;-143.21;97.45;72466.81;5071232;28;20940;-82
2023/06/05 01:30:13;;;;;;;16.10;11.30;;;;;;;-143.21;97.06;72458.88;5071132;28;20235;-82
2023/06/05 01:32:46;;;;;;;18.50;11.80;;;;;;;-143.21;97.36;72464.84;5071907;28;20193;-81
2023/06/05 01:35:17;;;;;;;18.13;11.83;;;;;;;-143.21;97.22;72458.88;5068932;28;20194;-82
2023/06/05 01:37:48;;;;;;;20.20;11.23;;;;;;;-143.21;96.36;72454.91;5069016;28;20205;-82
2023/06/05 01:40:18;;;;;;;16.43;10.53;;;;;;;-143.21;96.79;72450.97;5068178;28;20194;-82
2023/06/05 01:42:46;;;;;;;17.60;10.80;;;;;;;-143.21;96.99;72462.84;5072206;28;20204;-82
2023/06/05 01:45:15;;;;;;;15.60;10.60;;;;;;;-143.21;97.09;72464.84;5071034;28;20185;-82
2023/06/05 01:47:43;;;;;;;15.77;10.80;;;;;;;-143.21;97.27;72474.75;5078425;28;20201;-81
2023/06/05 01:50:12;;;;;;;21.73;11.77;;;;;;;-143.21;97.14;72464.84;5073624;28;20205;-82
2023/06/05 01:52:41;;;;;;;20.23;11.23;;;;;;;-143.21;97.24;72470.78;5072002;28;20201;-82
2023/06/05 01:55:14;;;;;;;20.43;11.73;;;;;;;-143.21;96.13;72466.81;5071659;28;20200;-83
2023/06/05 01:57:43;;;;;;;16.53;11.17;;;;;;;-143.21;95.70;72476.75;5071962;28;20201;-82
2023/06/05 02:00:13;;;;;;;16.83;10.57;;;;;;;-143.21;95.75;72476.75;5071255;28;20232;-82
2023/06/05 02:02:41;;;;;;;18.70;11.83;;;;;;;-143.21;95.65;72476.75;5071443;28;20202;-81
2023/06/05 02:05:09;;;;;;;17.83;10.87;;;;;;;-143.21;95.41;72472.78;5071106;28;20202;-82
2023/06/05 02:07:38;;;;;;;17.40;11.63;;;;;;;-143.21;95.78;72478.72;5070748;28;20264;-81
2023/06/05 02:10:05;;;;;;;18.43;11.27;;;;;;;-143.21;95.86;72478.72;5071433;28;20201;-82
2023/06/05 02:12:32;;;;;;;17.13;10.83;;;;;;;-143.21;95.35;72476.75;5070899;28;20193;-82
2023/06/05 02:15:01;;;;;;;16.10;10.77;;;;;;;-143.21;95.76;72474.75;5070968;28;20262;-81
2023/06/05 02:17:28;;;;;;;17.23;10.97;;;;;;;-143.21;96.08;72484.66;5070776;28;20197;-80
2023/06/05 02:19:55;;;;;;;16.20;11.63;;;;;;;-143.21;96.27;72484.66;5070297;28;20595;-76
2023/06/05 02:22:23;;;;;;;16.70;11.07;;;;;;;-143.21;96.28;72478.72;5067512;28;20292;-81
2023/06/05 02:24:51;;;;;;;17.13;12.63;;;;;;;-143.21;96.27;72484.66;5070856;28;20194;-82
2023/06/05 02:27:19;;;;;;;15.77;11.83;;;;;;;-143.21;96.24;72492.59;5070754;28;20687;-81
2023/06/05 02:29:46;;;;;;;16.97;12.23;;;;;;;-143.21;96.67;72488.63;5068218;28;20287;-82
2023/06/05 02:32:14;;;;;;;20.77;12.30;;;;;;;-143.21;96.10;72490.63;5067980;28;20229;-82
2023/06/05 02:34:41;;;;;;;17.70;13.27;;;;;;;-143.21;95.94;72496.56;5070635;28;20201;-82
2023/06/05 02:37:08;;;;;;;19.87;14.10;;;;;;;-143.21;96.09;72496.56;5070915;28;20202;-81
2023/06/05 02:39:35;;;;;;;27.60;15.90;;;;;;;-143.21;96.36;72500.53;5070191;28;20229;-82
2023/06/05 02:42:01;;;;;;;19.53;14.50;;;;;;;-143.21;96.32;72502.53;5069653;28;20212;-83
2023/06/05 02:44:29;;;;;;;22.53;15.17;;;;;;;-143.21;95.96;72500.53;5068666;28;20198;-83
2023/06/05 02:46:55;;;;;;;22.00;15.27;;;;;;;-143.21;95.75;72508.47;5069805;28;20250;-82
2023/06/05 02:49:24;;;;;;;22.30;14.83;;;;;;;-143.21;95.93;72512.44;5069610;28;20251;-82
2023/06/05 02:51:50;;;;;;;27.63;15.13;;;;;;;-143.21;96.67;72512.44;5074391;28;20201;-83
2023/06/05 02:54:17;;;;;;;23.97;15.60;;;;;;;-143.21;97.03;72514.41;5071341;28;20205;-82
2023/06/05 02:56:45;;;;;;;20.73;15.20;;;;;;;-143.21;96.47;72512.44;5070502;28;20204;-82
2023/06/05 02:59:11;;;;;;;18.40;14.63;;;;;;;-143.21;96.46;72516.41;5070652;28;20292;-81
2023/06/05 03:01:43;;;;;;;25.80;15.40;;;;;;;-143.21;96.71;72528.31;5070461;28;20244;-81
2023/06/05 03:04:10;;;;;;;23.30;14.80;;;;;;;-143.21;97.01;72528.31;5070289;28;20197;-82
2023/06/05 03:06:38;;;;;;;21.73;15.17;;;;;;;-143.21;97.07;72530.28;5069710;28;20245;-82
2023/06/05 03:09:06;;;;;;;20.60;14.20;;;;;;;-143.21;96.87;72534.25;5069703;28;20302;-82
2023/06/05 03:11:33;;;;;;;18.80;14.40;;;;;;;-143.21;96.70;72530.28;5069639;28;20224;-83
2023/06/05 03:14:00;;;;;;;23.20;14.67;;;;;;;-143.21;97.01;72536.25;5069563;28;20193;-80
2023/06/05 03:16:32;;;;;;;22.07;14.40;;;;;;;-143.21;97.04;72534.25;5068657;28;20209;-81
2023/06/05 03:18:59;;;;;;;25.10;15.30;;;;;;;-143.21;96.83;72540.19;5066978;28;20196;-80
2023/06/05 03:21:26;;;;;;;26.80;14.93;;;;;;;-143.21;96.56;72542.19;5068092;28;20229;-79
2023/06/05 03:23:54;;;;;;;22.60;14.43;;;;;;;-143.21;97.04;72538.22;5067951;28;20190;-79
2023/06/05 03:26:22;;;;;;;21.63;15.73;;;;;;;-143.21;96.70;72542.19;5068543;28;20578;-79
2023/06/05 03:28:51;;;;;;;26.07;17.83;;;;;;;-143.21;96.49;72542.19;5068125;28;20255;-79
2023/06/05 03:31:18;;;;;;;28.77;19.50;;;;;;;-143.21;96.82;72534.25;5068769;28;20194;-80
2023/06/05 03:33:45;;;;;;;26.10;17.73;;;;;;;-143.21;97.33;72530.28;5069274;28;20194;-80
2023/06/05 03:36:15;;;;;;;27.50;17.10;;;;;;;-143.21;97.51;72534.25;5068695;28;20541;-79
2023/06/05 03:38:41;;;;;;;28.33;18.40;;;;;;;-143.21;98.08;72530.28;5068536;28;20196;-80
2023/06/05 03:41:10;;;;;;;42.23;24.70;;;;;;;-143.21;97.56;72530.28;5068064;28;20217;-80
2023/06/05 03:43:37;;;;;;;40.17;24.20;;;;;;;-143.21;97.75;72530.28;5067929;28;20201;-79
2023/06/05 03:46:04;;;;;;;39.43;23.23;;;;;;;-143.21;97.93;72524.34;5067628;28;20197;-81
2023/06/05 03:48:31;;;;;;;41.10;25.30;;;;;;;-143.21;98.15;72514.41;5068979;28;20193;-80
2023/06/05 03:50:57;;;;;;;41.43;24.93;;;;;;;-143.21;97.95;72496.56;5068346;28;20209;-81
2023/06/05 03:53:29;;;;;;;39.47;24.53;;;;;;;-143.21;98.06;72494.59;5068096;28;20259;-80
2023/06/05 03:55:56;;;;;;;32.83;20.90;;;;;;;-143.21;98.14;72500.53;5068821;28;20193;-80
2023/06/05 03:58:26;;;;;;;30.13;18.93;;;;;;;-143.21;98.15;72514.41;5068711;28;20274;-80
2023/06/05 04:00:53;;;;;;;28.63;19.57;;;;;;;-143.21;98.60;72518.38;5068153;28;20722;-80
2023/06/05 04:03:20;;;;;;;30.47;18.70;;;;;;;-143.21;99.00;72514.41;5066919;28;20198;-80
2023/06/05 04:05:47;;;;;;;31.60;19.00;;;;;;;-143.21;99.22;72514.41;5065746;28;20201;-81
2023/06/05 04:08:14;;;;;;;27.20;19.27;;;;;;;-143.21;99.47;72508.47;5068725;28;20259;-79
2023/06/05 04:10:41;;;;;;;32.23;20.30;;;;;;;-143.21;99.72;72508.47;5068394;28;20649;-79
2023/06/05 04:13:08;;;;;;;32.40;19.37;;;;;;;-143.21;99.92;72490.63;5068176;28;20270;-79
2023/06/05 04:15:36;;;;;;;34.90;19.43;;;;;;;-143.21;100.00;72478.72;5067993;28;20194;-80
2023/06/05 04:18:03;;;;;;;40.73;20.47;;;;;;;-143.21;99.45;72472.78;5067109;28;20205;-79
2023/06/05 04:20:30;;;;;;;31.77;22.33;;;;;;;-143.21;99.05;72478.72;5067549;28;20218;-79
2023/06/05 04:22:57;;;;;;;40.67;23.30;;;;;;;-143.21;99.37;72478.72;5067501;28;20644;-79
2023/06/05 04:25:28;;;;;;;37.67;23.17;;;;;;;-143.21;99.43;72476.75;5066044;28;20208;-79
2023/06/05 04:27:57;;;;;;;34.33;23.60;;;;;;;-143.21;100.00;72464.84;5067832;28;20204;-78
2023/06/05 04:30:24;;;;;;;37.93;22.53;;;;;;;-143.21;100.00;72476.75;5069726;28;20197;-84
2023/06/05 04:32:54;;;;;;;42.33;22.70;;;;;;;-143.21;100.00;72470.78;5072798;28;20210;-83
2023/06/05 04:35:21;;;;;;;38.13;24.40;;;;;;;-143.21;100.00;72458.88;5072594;28;20640;-83
2023/06/05 04:37:48;;;;;;;33.00;22.73;;;;;;;-143.21;100.00;72454.91;5072618;28;20205;-83
2023/06/05 04:40:18;;;;;;;34.37;23.30;;;;;;;-143.21;100.00;72448.97;5072510;28;20244;-83
2023/06/05 04:42:44;;;;;;;34.60;23.63;;;;;;;-143.21;100.00;72441.03;5070127;28;20194;-84
2023/06/05 04:45:11;;;;;;;37.67;24.33;;;;;;;-143.21;100.00;72437.06;5072601;28;20220;-83
2023/06/05 04:47:38;;;;;;;40.07;23.70;;;;;;;-143.21;100.00;72439.06;5070876;28;20679;-77
2023/06/05 04:50:08;;;;;;;32.40;22.97;;;;;;;-143.21;100.00;72435.09;5069712;28;20205;-77
2023/06/05 04:52:36;;;;;;;32.70;23.27;;;;;;;-143.21;100.00;72427.16;5070072;28;20205;-77
2023/06/05 04:55:03;;;;;;;35.17;21.93;;;;;;;-143.21;100.00;72421.22;5070863;28;20197;-82
2023/06/05 04:57:30;;;;;;;34.10;23.33;;;;;;;-143.21;100.00;72417.25;5071804;28;20205;-82
2023/06/05 04:59:57;;;;;;;34.73;23.27;;;;;;;-143.21;100.00;72411.28;5072277;28;20194;-82
2023/06/05 05:02:26;;;;;;;35.40;23.60;;;;;;;-143.21;100.00;72405.34;5070909;28;20284;-80
2023/06/05 05:04:53;;;;;;;32.83;23.57;;;;;;;-143.21;100.00;72389.47;5070469;28;20193;-80
2023/06/05 05:07:22;;;;;;;36.13;23.80;;;;;;;-143.21;100.00;72393.44;5071148;28;20750;-82
2023/06/05 05:09:50;;;;;;;32.57;22.63;;;;;;;-143.21;100.00;72383.53;5071548;28;20200;-80
2023/06/05 05:12:17;;;;;;;38.60;23.13;;;;;;;-143.21;100.00;72385.50;5066294;28;20280;-80
2023/06/05 05:14:44;;;;;;;34.90;22.93;;;;;;;-143.21;99.93;72363.69;5068701;28;20281;-80
2023/06/05 05:17:11;;;;;;;32.50;22.63;;;;;;;-143.21;99.84;72361.72;5072186;28;20197;-81
2023/06/05 05:19:40;;;;;;;39.77;22.07;;;;;;;-143.21;99.76;72363.69;5070724;28;20905;-80
2023/06/05 05:22:07;;;;;;;35.50;22.03;;;;;;;-143.21;99.50;72349.81;5070247;28;20261;-80
2023/06/05 05:24:37;;;;;;;31.93;21.47;;;;;;;-143.21;99.49;72351.78;5068431;28;20197;-81
2023/06/05 05:27:05;;;;;;;36.37;22.47;;;;;;;-143.21;99.53;72331.97;5071097;28;20197;-81
2023/06/05 05:29:33;;;;;;;32.47;21.53;;;;;;;-143.21;99.43;72326.00;5071103;28;20201;-80
2023/06/05 05:32:00;;;;;;;31.57;21.17;;;;;;;-143.21;99.51;72318.09;5070904;28;20186;-80
2023/06/05 05:34:26;;;;;;;35.77;21.63;;;;;;;-143.21;99.58;72304.19;5069711;28;20309;-80
2023/06/05 05:36:53;;;;;;;32.63;20.50;;;;;;;-143.21;99.28;72294.28;5071001;28;20668;-80
2023/06/05 05:39:20;;;;;;;30.93;20.57;;;;;;;-143.21;98.91;72280.41;5070234;28;20197;-79
2023/06/05 05:41:48;;;;;;;29.77;18.73;;;;;;;-143.21;98.77;72276.44;5068352;28;20692;-77
2023/06/05 05:44:16;;;;;;;26.20;18.77;;;;;;;-143.21;98.64;72264.53;5069672;28;20202;-78
2023/06/05 05:46:46;;;;;;;32.10;19.37;;;;;;;-143.21;98.76;72254.63;5070024;28;20582;-78
2023/06/05 05:49:13;;;;;;;24.30;17.43;;;;;;;-143.21;98.64;72234.78;5070128;28;20186;-78
2023/06/05 05:51:40;;;;;;;27.43;18.43;;;;;;;-143.21;97.85;72224.88;5068937;28;20675;-78
2023/06/05 05:54:07;;;;;;;28.03;17.57;;;;;;;-143.21;97.64;72211.00;5069114;28;20785;-79
2023/06/05 05:56:35;;;;;;;25.30;17.63;;;;;;;-143.21;97.00;72193.16;5041610;28;20345;-78
2023/06/05 05:59:04;;;;;;;28.20;17.67;;;;;;;-143.21;96.34;72177.28;5054609;28;20282;-79
2023/06/05 06:01:33;;;;;;;22.53;16.77;;;;;;;-143.21;95.53;72167.38;5068490;28;20213;-79
2023/06/05 06:04:00;;;;;;;28.47;17.23;;;;;;;-143.21;95.10;72155.47;5041783;28;20728;-78
2023/06/05 06:06:27;;;;;;;22.23;16.37;;;;;;;-143.21;94.68;72137.63;5057582;28;20229;-78
2023/06/05 06:08:54;;;;;;;21.20;16.75;;;;;;;-143.21;94.08;72141.59;5054274;28;20199;-78
2023/06/05 06:11:21;;;;;;;27.37;17.80;;;;;;;-143.21;93.37;72131.69;5067435;28;20215;-78
2023/06/05 06:13:48;;;;;;;29.23;16.10;;;;;;;-143.21;93.19;72125.72;5068194;28;20201;-79
2023/06/05 06:16:16;;;;;;;28.40;17.58;;;;;;;-143.21;93.03;72105.91;5068104;28;20194;-78
2023/06/05 06:18:43;;;;;;;23.58;16.50;;;;;;;-143.21;93.00;72103.91;5067969;28;20200;-78
2023/06/05 06:21:10;;;;;;;29.27;16.02;;;;;;;-143.21;92.49;72084.06;5067374;28;20225;-78
2023/06/05 06:23:40;;;;;;;22.48;15.43;;;;;;;-143.21;91.09;72072.19;5068109;28;20209;-78
2023/06/05 06:26:07;;;;;;;23.50;15.13;;;;;;;-143.21;90.58;72068.22;5067384;28;20213;-78
2023/06/05 06:28:33;;;;;;;25.45;15.38;;;;;;;-143.21;90.22;72048.38;5067534;28;20286;-78
2023/06/05 06:31:00;;;;;;;21.85;15.02;;;;;;;-143.21;90.00;72038.47;5067506;28;20703;-78
2023/06/05 06:33:30;;;;;;;24.75;14.68;;;;;;;-143.21;89.74;72026.56;5067085;28;20194;-78
2023/06/05 06:35:58;;;;;;;21.80;14.48;;;;;;;-143.21;89.34;72018.63;5066835;28;20205;-78
2023/06/05 06:38:29;;;;;;;20.77;14.32;;;;;;;-143.21;88.90;72008.72;5064107;28;20209;-78
2023/06/05 06:40:56;;;;;;;19.95;14.48;;;;;;;-143.21;88.05;71994.84;5067164;28;20304;-77
2023/06/05 06:43:23;;;;;;;20.92;14.05;;;;;;;-143.21;87.79;71986.91;5067056;28;20277;-78
2023/06/05 06:45:50;;;;;;;20.35;13.55;;;;;;;-143.21;86.91;71980.97;5050526;28;20201;-78
2023/06/05 06:48:18;;;;;;;22.25;13.98;;;;;;;-143.21;85.65;71978.97;5059445;28;20576;-78
2023/06/05 06:50:47;;;;;;;21.55;13.98;;;;;;;-143.21;85.50;71963.13;5065165;28;20554;-77
2023/06/05 06:53:14;;;;;;;22.85;13.45;;;;;;;-143.21;84.59;71959.16;5066135;28;20201;-78
2023/06/05 06:55:41;;;;;;;21.48;14.55;;;;;;;-143.21;84.40;71949.25;5066419;28;20631;-77
2023/06/05 06:58:08;;;;;;;21.73;13.68;;;;;;;-143.21;83.46;71939.31;5066641;28;20203;-77
2023/06/05 07:00:35;;;;;;;21.08;15.00;;;;;;;-143.21;83.54;71937.34;5067911;28;20668;-81
2023/06/05 07:03:02;;;;;;;22.50;15.45;;;;;;;-143.21;83.94;71925.44;5069359;28;20205;-82
2023/06/05 07:05:31;;;;;;;20.23;14.73;;;;;;;-143.21;83.02;71919.50;5072152;28;20636;-82
2023/06/05 07:08:00;;;;;;;20.80;14.82;;;;;;;-143.21;82.13;71915.53;5063371;28;20233;-83
2023/06/05 07:10:28;;;;;;;20.95;14.90;;;;;;;-143.21;82.52;71907.59;5065646;28;20207;-82
2023/06/05 07:12:55;;;;;;;18.75;13.93;;;;;;;-143.21;82.58;71891.72;5069327;28;20225;-82
2023/06/05 07:15:22;;;;;;;20.45;15.38;;;;;;;-143.21;81.59;71881.81;5069656;28;20201;-81
2023/06/05 07:17:49;;;;;;;21.10;15.73;;;;;;;-143.21;80.81;71883.81;5069761;28;20197;-81
2023/06/05 07:20:16;;;;;;;22.48;15.90;;;;;;;-143.21;80.89;71875.88;5067834;28;20213;-78
2023/06/05 07:22:44;;;;;;;23.08;15.77;;;;;;;-143.21;80.34;71863.97;5065808;28;20248;-82
2023/06/05 07:25:15;;;;;;;26.77;15.77;;;;;;;-143.21;79.71;71863.97;5068966;28;20200;-83
2023/06/05 07:27:43;;;;;;;20.42;15.55;;;;;;;-143.21;79.08;71865.97;5068399;28;20193;-82
2023/06/05 07:30:13;;;;;;;27.75;16.63;;;;;;;-143.21;78.64;71867.94;5071196;28;20602;-78
2023/06/05 07:32:40;;;;;;;26.25;16.92;;;;;;;-143.21;78.66;71860.00;5070880;28;20197;-83
2023/06/05 07:35:08;;;;;;;27.40;16.70;;;;;;;-143.21;78.30;71854.06;5065306;28;20198;-84
2023/06/05 07:37:35;;;;;;;24.13;15.85;;;;;;;-143.21;77.67;71850.09;5068436;28;20194;-79
2023/06/05 07:40:02;;;;;;;24.30;16.05;;;;;;;-143.21;78.04;71834.22;5068248;28;20204;-78
2023/06/05 07:42:30;;;;;;;24.73;16.05;;;;;;;-143.21;77.69;71824.31;5068488;28;20738;-78
2023/06/05 07:44:57;;;;;;;22.58;15.57;;;;;;;-143.21;76.48;71812.41;5069270;28;20205;-78
2023/06/05 07:47:24;;;;;;;27.52;15.90;;;;;;;-143.21;75.34;71798.53;5071584;28;20206;-78
2023/06/05 07:49:58;;;;;;;22.58;16.17;;;;;;;-143.21;75.22;71798.53;5069053;28;20652;-78
2023/06/05 07:52:26;;;;;;;22.50;16.20;;;;;;;-143.21;75.08;71784.66;5069470;28;20185;-78
2023/06/05 07:54:53;;;;;;;24.27;16.60;;;;;;;-143.21;74.31;71764.81;5069292;28;20555;-78
2023/06/05 07:57:20;;;;;;;23.38;16.67;;;;;;;-143.21;72.74;71774.75;5069646;28;20205;-78
2023/06/05 07:59:49;;;;;;;21.42;15.10;;;;;;;-143.21;72.75;71772.75;5070160;28;20327;-78
2023/06/05 08:02:16;;;;;;;22.10;15.77;;;;;;;-143.21;73.27;71756.91;5070010;28;20267;-79
2023/06/05 08:04:43;;;;;;;23.88;15.35;;;;;;;-143.21;73.32;71735.09;5072889;28;20741;-78
2023/06/05 08:07:10;;;;;;;23.75;15.15;;;;;;;-143.21;72.68;71735.09;5074041;28;20228;-79
2023/06/05 08:09:37;;;;;;;25.70;16.42;;;;;;;-143.21;73.06;71725.16;5071875;28;20226;-78
2023/06/05 08:12:04;;;;;;;22.98;14.82;;;;;;;-143.21;73.56;71715.25;5070640;28;20629;-80
2023/06/05 08:14:31;;;;;;;24.63;15.43;;;;;;;-143.21;71.26;71717.25;5074018;28;20201;-80
2023/06/05 08:16:59;;;;;;;21.10;14.93;;;;;;;-143.21;71.04;71723.19;5075114;28;20648;-78
2023/06/05 08:19:26;;;;;;;23.05;15.63;;;;;;;-143.21;71.92;71717.25;5073840;28;20201;-78
2023/06/05 08:21:56;;;;;;;20.80;15.52;;;;;;;-143.21;71.42;71697.41;5073772;28;20213;-77
2023/06/05 08:24:23;;;;;;;24.52;15.48;;;;;;;-143.21;70.79;71697.41;5073711;28;20197;-77
2023/06/05 08:26:50;;;;;;;25.30;15.50;;;;;;;-143.21;70.63;71693.44;5072977;28;20190;-78
2023/06/05 08:29:16;;;;;;;20.65;14.25;;;;;;;-143.21;71.25;71685.50;5074269;28;20189;-78
2023/06/05 08:31:43;;;;;;;23.67;15.77;;;;;;;-143.21;71.17;71685.50;5073645;28;20202;-78
2023/06/05 08:34:12;;;;;;;20.75;14.10;;;;;;;-143.21;69.27;71673.63;5073650;28;20197;-78
2023/06/05 08:36:38;;;;;;;21.45;14.43;;;;;;;-143.21;69.10;71679.56;5075250;28;20632;-79
2023/06/05 08:39:05;;;;;;;20.70;14.43;;;;;;;-143.21;69.88;71665.69;5073140;28;20201;-78
2023/06/05 08:41:35;;;;;;;19.40;14.32;;;;;;;-143.21;69.85;71659.75;5073670;28;20279;-78
2023/06/05 08:44:02;;;;;;;22.65;14.57;;;;;;;-143.21;69.78;71641.91;5073895;28;20214;-79
2023/06/05 08:46:30;;;;;;;19.08;13.20;;;;;;;-143.21;67.92;71624.06;5076643;28;20197;-84
2023/06/05 08:48:58;;;;;;;20.90;14.60;;;;;;;-143.21;67.87;71612.16;5061142;28;20186;-84
2023/06/05 08:51:27;;;;;;;22.00;14.10;;;;;;;-143.21;67.45;71596.28;5082480;28;20198;-83
2023/06/05 08:53:57;;;;;;;23.58;14.32;;;;;;;-143.21;68.79;71584.41;5083688;28;20729;-83
2023/06/05 08:56:27;;;;;;;19.20;12.95;;;;;;;-143.21;67.66;71578.44;5076646;28;20189;-84
2023/06/05 08:58:55;;;;;;;19.15;13.73;;;;;;;-143.21;67.84;71560.59;5054645;28;20766;-84
2023/06/05 09:01:21;;;;;;;20.17;14.05;;;;;;;-143.21;67.24;71558.63;5070415;28;20213;-84
2023/06/05 09:03:48;;;;;;;18.30;13.88;;;;;;;-143.21;67.25;71542.75;5074576;28;20198;-84
2023/06/05 09:06:15;;;;;;;19.30;13.38;;;;;;;-143.21;66.17;71536.81;5073446;28;20225;-78
2023/06/05 09:08:44;;;;;;;20.08;13.00;;;;;;;-143.21;64.49;71546.72;5071735;28;20186;-78
2023/06/05 09:11:27;;;;;;;19.55;13.75;;;;;;;-143.21;65.54;71544.75;5070224;28;20193;-78
2023/06/05 09:13:56;;;;;;;20.63;14.27;;;;;;;-143.21;65.77;71544.75;5070478;28;20809;-78
2023/06/05 09:16:23;;;;;;;21.65;14.07;;;;;;;-143.21;66.48;71550.69;5071569;28;20780;-78
2023/06/05 09:18:55;;;;;;;17.85;13.65;;;;;;;-143.21;65.32;71554.66;5072527;28;20201;-78
2023/06/05 09:21:28;;;;;;;22.52;14.80;;;;;;;-143.21;65.09;71540.78;5072715;28;20204;-78
2023/06/05 09:24:12;;;;;;;17.60;13.73;;;;;;;-143.21;65.61;71548.72;5072846;28;20193;-78
2023/06/05 09:26:48;;;;;;;21.75;14.52;;;;;;;-143.21;65.82;71562.59;5071315;28;20194;-79
2023/06/05 09:29:22;;;;;;;19.52;13.52;;;;;;;-143.21;66.02;71560.59;5073022;28;20193;-79
2023/06/05 09:31:49;;;;;;;17.17;12.65;;;;;;;-143.21;66.23;71564.56;5070061;28;20196;-79
2023/06/05 09:34:23;;;;;;;19.35;12.68;;;;;;;-143.21;65.33;71566.56;5074238;28;20197;-78
2023/06/05 09:36:51;;;;;;;22.48;13.07;;;;;;;-143.21;65.96;71570.53;5070290;28;20227;-79
2023/06/05 09:39:21;;;;;;;21.05;12.15;;;;;;;-143.21;66.67;71562.59;5071668;28;20201;-79
2023/06/05 09:41:51;;;;;;;18.85;13.18;;;;;;;-143.21;66.23;71544.75;5072789;28;20296;-85
2023/06/05 09:44:18;;;;;;;17.13;11.85;;;;;;;-143.21;65.96;71538.78;5073546;28;20678;-85
2023/06/05 09:46:56;;;;;;;29.98;12.60;;;;;;;-143.21;66.28;71520.94;5072819;28;20215;-79
2023/06/05 09:49:26;;;;;;;17.70;12.55;;;;;;;-143.21;66.22;71501.13;5072450;28;20201;-79
2023/06/05 09:51:53;;;;;;;14.15;11.18;;;;;;;-143.21;64.62;71485.25;5069858;28;20239;-79
2023/06/05 09:54:23;;;;;;;23.25;12.00;;;;;;;-143.21;63.90;71477.34;5071784;28;20204;-79
2023/06/05 09:56:50;;;;;;;15.20;11.70;;;;;;;-143.21;63.79;71481.28;5066453;28;20190;-79
2023/06/05 09:59:22;;;;;;;17.02;11.65;;;;;;;-143.21;63.68;71477.34;5072292;28;20197;-79
2023/06/05 10:01:52;;;;;;;15.40;11.02;;;;;;;-143.21;62.79;71497.16;5069390;28;20209;-79
2023/06/05 10:04:22;;;;;;;19.15;11.65;;;;;;;-143.21;64.22;71507.06;5072012;28;20271;-79
2023/06/05 10:06:51;;;;;;;15.45;10.00;;;;;;;-143.21;62.25;71536.81;5071152;28;20591;-79
2023/06/05 10:09:19;;;;;;;16.02;11.20;;;;;;;-143.21;63.36;71546.72;5072068;28;20214;-79
2023/06/05 10:11:50;;;;;;;17.17;10.40;;;;;;;-143.21;64.06;71548.72;5072122;28;20200;-79
2023/06/05 10:14:18;;;;;;;17.23;10.55;;;;;;;-143.21;64.55;71550.69;5070056;28;20193;-78
2023/06/05 10:16:49;;;;;;;13.18;10.18;;;;;;;-143.21;65.00;71556.63;5071341;28;20212;-78
2023/06/05 10:19:18;;;;;;;15.27;10.48;;;;;;;-143.21;64.36;71564.56;5071514;28;20284;-78
2023/06/05 10:21:47;;;;;;;15.48;11.13;;;;;;;-143.21;64.94;71594.31;5071284;28;20225;-78
2023/06/05 10:24:18;;;;;;;20.88;11.48;;;;;;;-143.21;65.88;71608.19;5070777;28;20232;-78
2023/06/05 10:27:17;;;;;;;19.60;11.45;;;;;;;-143.21;66.72;71614.13;5070387;28;20209;-78
2023/06/05 10:30:05;;;;;;;16.00;11.48;;;;;;;-143.21;64.88;71606.22;5060716;28;20201;-77
2023/06/05 10:32:41;;;;;;;21.25;11.18;;;;;;;-143.21;65.93;71616.13;5070876;28;20202;-77
2023/06/05 10:35:17;;;;;;;18.55;10.88;;;;;;;-143.21;64.93;71612.16;5071145;28;20327;-78
2023/06/05 10:37:56;;;;;;;18.27;9.85;;;;;;;-143.21;65.22;71590.34;5071234;28;21025;-78
2023/06/05 10:40:24;;;;;;;18.35;10.32;;;;;;;-143.21;66.27;71570.53;5071069;28;20200;-78
2023/06/05 10:42:51;;;;;;;19.83;11.38;;;;;;;-143.21;65.48;71544.75;5070373;28;20258;-78
2023/06/05 10:45:32;;;;;;;18.52;12.07;;;;;;;-143.21;66.08;71509.06;5071075;28;20641;-77
2023/06/05 10:47:59;;;;;;;21.65;11.32;;;;;;;-143.21;66.06;71467.41;5069415;28;20679;-78
2023/06/05 10:50:28;;;;;;;18.73;11.82;;;;;;;-143.21;65.19;71425.78;5071125;28;20216;-79
2023/06/05 10:52:57;;;;;;;17.50;11.95;;;;;;;-143.21;64.59;71390.09;5071242;28;20186;-79
2023/06/05 10:55:25;;;;;;;14.43;11.25;;;;;;;-143.21;62.19;71370.28;5070932;28;20701;-79
2023/06/05 10:58:22;;;;;;;15.95;9.90;;;;;;;-143.21;62.13;71358.38;5069372;28;20189;-79
2023/06/05 11:01:19;;;;;;;19.70;10.10;;;;;;;-143.21;61.85;71318.72;5022952;28;20194;-81
2023/06/05 11:03:57;;;;;;;11.27;8.77;;;;;;;-143.21;60.15;71296.91;5070792;28;20609;-78
2023/06/05 11:06:24;;;;;;;12.02;9.38;;;;;;;-143.21;59.89;71277.09;5070503;28;20762;-79
2023/06/05 11:09:12;;;;;;;11.15;8.63;;;;;;;-143.21;59.50;71249.34;5070518;28;20236;-79